Time;durP1;ratioP1;P1;durP2;ratioP2;P2;SDS_P1;SDS_P2;PMS_P1;PMS_P2;Temp;Humidity;BMP_temperature;BMP_pressure;BME280_temperature;BME280_humidity;BME280_pressure;Samples;Min_cycle;Max_cycle;Signal;HPM_P1;HPM_P2
2022/09/10 00:03:28;;;;;;;1.30;1.15;;;22.40;77.70;;;;;;10846015;27;20360;-71
2022/09/10 00:09:30;;;;;;;1.25;0.90;;;22.30;78.00;;;;;;10868898;32;20046;-71
2022/09/10 00:15:58;;;;;;;2.28;1.42;;;22.30;78.20;;;;;;10868730;32;20039;-71
2022/09/10 00:22:00;;;;;;;1.08;1.00;;;22.30;78.30;;;;;;10868436;32;20031;-71
2022/09/10 00:28:02;;;;;;;2.20;1.65;;;22.20;78.20;;;;;;10864206;32;20035;-71
2022/09/10 00:34:06;;;;;;;3.22;1.50;;;22.20;78.50;;;;;;10868278;32;20020;-71
2022/09/10 00:40:09;;;;;;;1.50;1.17;;;22.00;78.80;;;;;;10867872;32;20039;-71
2022/09/10 00:46:11;;;;;;;1.62;1.23;;;21.80;79.50;;;;;;10866805;32;20019;-71
2022/09/10 00:52:13;;;;;;;1.67;1.10;;;21.80;79.30;;;;;;10867587;32;20062;-71
2022/09/10 00:58:18;;;;;;;11.55;2.00;;;21.80;79.10;;;;;;10866813;32;20028;-71
2022/09/10 01:04:21;;;;;;;1.83;1.30;;;21.60;78.90;;;;;;10867423;32;20046;-71
2022/09/10 01:10:27;;;;;;;1.58;1.23;;;21.50;78.80;;;;;;10867068;32;20392;-71
2022/09/10 01:16:38;;;;;;;2.17;1.45;;;21.70;78.70;;;;;;10853747;32;20054;-71
2022/09/10 01:23:13;;;;;;;1.10;1.00;;;21.70;78.70;;;;;;10866951;32;20023;-71
2022/09/10 01:29:36;;;;;;;2.25;1.37;;;21.80;78.50;;;;;;10866770;32;20019;-71
2022/09/10 01:35:57;;;;;;;1.93;1.47;;;21.70;78.50;;;;;;10866769;32;20028;-72
2022/09/10 01:42:02;;;;;;;1.17;1.05;;;21.70;78.60;;;;;;10865721;32;20058;-71
2022/09/10 01:48:49;;;;;;;4.60;2.00;;;21.70;78.50;;;;;;10866476;32;20027;-71
2022/09/10 01:54:55;;;;;;;1.42;1.25;;;21.80;78.60;;;;;;10866385;32;20397;-71
2022/09/10 02:01:20;;;;;;;1.15;0.70;;;21.60;78.40;;;;;;10866123;32;20031;-71
2022/09/10 02:07:25;;;;;;;3.65;1.73;;;21.50;78.60;;;;;;10869409;32;20019;-71
2022/09/10 02:13:29;;;;;;;1.67;1.27;;;21.70;78.40;;;;;;10860112;32;20372;-71
2022/09/10 02:19:32;;;;;;;2.45;1.35;;;21.70;78.40;;;;;;10871900;32;20032;-71
2022/09/10 02:25:36;;;;;;;1.60;1.15;;;21.60;78.40;;;;;;10872691;32;20028;-71
2022/09/10 02:31:39;;;;;;;5.37;1.50;;;21.60;78.50;;;;;;10872529;32;20031;-70
2022/09/10 02:37:42;;;;;;;1.60;1.27;;;21.50;78.60;;;;;;10872220;32;20028;-70
2022/09/10 02:43:47;;;;;;;0.93;0.82;;;21.70;78.60;;;;;;10872161;32;20427;-70
2022/09/10 02:49:57;;;;;;;1.65;1.35;;;21.70;78.50;;;;;;10871880;32;20042;-70
2022/09/10 02:56:01;;;;;;;2.03;1.53;;;21.70;78.90;;;;;;10871663;32;20019;-70
2022/09/10 03:02:09;;;;;;;2.22;1.58;;;21.80;78.80;;;;;;10871515;32;20020;-70
2022/09/10 03:08:12;;;;;;;2.42;1.73;;;21.80;78.70;;;;;;10871275;32;20037;-73
2022/09/10 03:14:19;;;;;;;4.82;3.05;;;21.40;78.40;;;;;;10870973;32;20024;-72
2022/09/10 03:20:21;;;;;;;2.62;1.70;;;21.00;78.50;;;;;;10870305;32;20019;-71
2022/09/10 03:26:24;;;;;;;2.03;1.50;;;20.90;79.00;;;;;;10870241;32;20320;-71
2022/09/10 03:32:27;;;;;;;2.50;1.80;;;21.00;78.80;;;;;;10870438;32;20047;-70
2022/09/10 03:38:46;;;;;;;1.40;1.30;;;21.10;78.90;;;;;;10870078;32;20024;-70
2022/09/10 03:44:48;;;;;;;3.00;1.70;;;21.10;79.10;;;;;;10870095;32;20038;-70
2022/09/10 03:50:51;;;;;;;1.92;1.42;;;21.10;79.10;;;;;;10869626;32;20024;-71
2022/09/10 03:56:53;;;;;;;2.55;1.60;;;21.20;79.60;;;;;;10869519;32;20042;-70
2022/09/10 04:02:55;;;;;;;1.10;1.00;;;21.20;79.80;;;;;;10869229;32;20423;-70
2022/09/10 04:08:59;;;;;;;2.20;1.75;;;21.30;79.40;;;;;;10864874;32;20055;-70
2022/09/10 04:15:03;;;;;;;2.17;1.40;;;21.30;79.30;;;;;;10868865;32;20020;-71
2022/09/10 04:21:06;;;;;;;1.62;1.48;;;21.00;80.00;;;;;;10868608;32;20042;-71
2022/09/10 04:27:09;;;;;;;2.85;1.30;;;21.00;80.50;;;;;;10867450;32;20019;-71
2022/09/10 04:33:11;;;;;;;2.50;1.67;;;21.00;80.30;;;;;;10867595;32;20057;-71
2022/09/10 04:39:16;;;;;;;6.97;2.90;;;21.20;79.90;;;;;;10867957;32;20325;-71
2022/09/10 04:45:18;;;;;;;3.33;2.20;;;21.10;79.70;;;;;;10867810;32;20059;-70
2022/09/10 04:51:20;;;;;;;2.53;2.10;;;21.00;79.90;;;;;;10854295;32;20053;-70
2022/09/10 04:57:24;;;;;;;2.95;2.05;;;21.00;79.90;;;;;;10867369;32;20028;-70
2022/09/10 05:03:27;;;;;;;2.45;1.73;;;21.00;79.90;;;;;;10867278;32;20046;-70
2022/09/10 05:09:30;;;;;;;2.28;1.52;;;21.00;79.80;;;;;;10867185;32;20051;-71
2022/09/10 05:15:51;;;;;;;5.15;3.35;;;21.10;79.60;;;;;;10867072;32;20027;-71
2022/09/10 05:21:54;;;;;;;3.40;2.20;;;21.10;79.50;;;;;;10866780;32;20050;-71
2022/09/10 05:27:57;;;;;;;4.65;2.85;;;21.00;79.50;;;;;;10866754;32;20054;-71
2022/09/10 05:34:03;;;;;;;3.50;2.40;;;20.90;79.60;;;;;;10864163;32;20110;-71
2022/09/10 05:40:15;;;;;;;3.05;2.00;;;20.90;79.50;;;;;;10867030;32;20027;-71
2022/09/10 05:46:19;;;;;;;3.28;2.17;;;20.90;79.50;;;;;;10860833;32;20385;-71
2022/09/10 05:52:23;;;;;;;3.85;1.85;;;21.00;79.50;;;;;;10860786;32;20050;-71
2022/09/10 05:58:29;;;;;;;3.03;2.28;;;21.10;79.40;;;;;;10873539;32;20019;-71
2022/09/10 06:04:36;;;;;;;2.85;1.80;;;21.10;79.30;;;;;;10873464;32;20054;-71
2022/09/10 06:10:38;;;;;;;2.22;1.50;;;21.10;79.30;;;;;;10873345;32;20074;-71
2022/09/10 06:16:41;;;;;;;1.98;1.08;;;21.20;79.30;;;;;;10872981;32;20035;-71
2022/09/10 06:22:43;;;;;;;4.85;2.00;;;21.30;79.20;;;;;;10872626;32;20028;-70
2022/09/10 06:28:46;;;;;;;0.57;0.57;;;21.30;79.10;;;;;;10872611;32;20019;-70
2022/09/10 06:34:49;;;;;;;1.80;0.93;;;21.30;79.10;;;;;;10871170;32;20055;-71
2022/09/10 06:40:53;;;;;;;3.83;1.65;;;21.30;79.00;;;;;;10871993;32;20020;-71
2022/09/10 06:46:56;;;;;;;1.37;1.05;;;21.30;79.00;;;;;;10872043;32;20325;-71
2022/09/10 06:52:58;;;;;;;1.30;0.75;;;21.50;78.80;;;;;;10870886;32;20058;-71
2022/09/10 06:59:01;;;;;;;1.33;0.88;;;21.60;78.70;;;;;;10871461;32;20340;-71
2022/09/10 07:05:13;;;;;;;1.48;1.20;;;21.70;78.60;;;;;;10871510;32;20302;-71
2022/09/10 07:11:17;;;;;;;0.60;0.60;;;21.80;78.40;;;;;;10871211;32;20042;-71
2022/09/10 07:17:19;;;;;;;0.57;0.57;;;21.80;78.30;;;;;;10870842;32;20062;-71
2022/09/10 07:23:22;;;;;;;1.02;0.98;;;21.80;78.30;;;;;;10870622;32;20015;-71
2022/09/10 07:29:25;;;;;;;0.75;0.75;;;21.80;78.20;;;;;;10857277;32;20392;-71
2022/09/10 07:35:27;;;;;;;1.90;0.80;;;22.00;78.10;;;;;;10870284;32;20020;-71
2022/09/10 07:41:33;;;;;;;0.98;0.68;;;22.10;77.80;;;;;;10856929;32;20023;-71
2022/09/10 07:47:37;;;;;;;0.85;0.62;;;22.10;77.50;;;;;;10870091;32;20026;-70
2022/09/10 07:53:39;;;;;;;0.88;0.65;;;22.20;77.40;;;;;;10869675;32;20392;-71
2022/09/10 07:59:43;;;;;;;0.40;0.40;;;22.30;77.30;;;;;;10455046;27;12446376;-70
2022/09/10 08:05:48;;;;;;;0.55;0.55;;;22.30;77.20;;;;;;10642269;33;20045;-71
2022/09/10 08:11:50;;;;;;;5.53;0.90;;;22.40;77.20;;;;;;10638720;33;20033;-71
2022/09/10 08:17:54;;;;;;;2.05;0.88;;;22.50;76.90;;;;;;10641863;33;20033;-73
2022/09/10 08:23:57;;;;;;;2.75;0.93;;;22.60;76.60;;;;;;10641930;33;20026;-71
2022/09/10 08:30:01;;;;;;;0.68;0.68;;;22.60;76.30;;;;;;10642057;33;20398;-72
2022/09/10 08:36:12;;;;;;;0.52;0.52;;;22.70;75.90;;;;;;10712965;33;20381;-71
2022/09/10 08:42:26;;;;;;;0.80;0.80;;;22.80;75.90;;;;;;10716131;33;20040;-71
2022/09/10 08:49:25;;;;;;;0.75;0.65;;;22.80;75.80;;;;;;10716199;32;20057;-71
2022/09/10 08:55:40;;;;;;;1.58;0.85;;;22.90;75.10;;;;;;10754185;33;20047;-70
2022/09/10 09:02:35;;;;;;;0.40;0.40;;;23.00;74.90;;;;;;10752666;33;20032;-72
2022/09/10 09:08:49;;;;;;;0.40;0.40;;;23.20;74.20;;;;;;10717188;33;20342;-72
2022/09/10 09:15:10;;;;;;;3.03;0.50;;;23.20;73.60;;;;;;10710843;33;20091;-71
2022/09/10 09:21:16;;;;;;;1.42;0.62;;;23.30;73.40;;;;;;10716516;33;20407;-72
2022/09/10 09:27:19;;;;;;;0.85;0.65;;;23.40;72.80;;;;;;10711006;33;20099;-72
2022/09/10 09:33:23;;;;;;;0.90;0.60;;;23.50;72.30;;;;;;10673505;33;20417;-71
2022/09/10 09:40:03;;;;;;;0.73;0.40;;;23.60;72.10;;;;;;10673465;33;20033;-72
2022/09/10 09:46:18;;;;;;;3.20;1.00;;;23.80;71.30;;;;;;10714519;33;20047;-72
2022/09/10 09:52:23;;;;;;;0.62;0.62;;;23.80;71.10;;;;;;10714522;33;20390;-71
2022/09/10 09:58:31;;;;;;;0.90;0.60;;;24.00;70.50;;;;;;10714269;32;20060;-71
2022/09/10 10:04:35;;;;;;;1.90;0.60;;;24.00;70.30;;;;;;10711846;33;20022;-71
2022/09/10 10:11:00;;;;;;;0.93;0.82;;;24.20;69.90;;;;;;10758358;32;20357;-72
2022/09/10 10:17:31;;;;;;;0.85;0.40;;;24.30;69.50;;;;;;10854541;32;20033;-72
2022/09/10 10:23:35;;;;;;;0.70;0.50;;;24.50;68.20;;;;;;10709658;33;20055;-71
2022/09/10 10:30:09;;;;;;;0.30;0.30;;;24.50;69.20;;;;;;10717877;33;20043;-71
2022/09/10 10:36:32;;;;;;;0.47;0.43;;;24.70;68.30;;;;;;10706712;33;20029;-71
2022/09/10 10:42:48;;;;;;;0.40;0.40;;;24.80;67.70;;;;;;10719423;33;20048;-72
2022/09/10 10:49:19;;;;;;;0.40;0.40;;;25.00;67.70;;;;;;10718437;33;20032;-71
2022/09/10 10:55:36;;;;;;;1.75;0.40;;;25.30;67.20;;;;;;10719131;33;20020;-71
2022/09/10 11:02:00;;;;;;;0.63;0.53;;;25.40;66.40;;;;;;10714872;33;20103;-71
2022/09/10 11:08:15;;;;;;;3.03;0.70;;;25.70;65.60;;;;;;10718794;33;20048;-72
2022/09/10 11:14:32;;;;;;;0.40;0.40;;;26.00;64.40;;;;;;10718639;33;20040;-72
2022/09/10 11:20:55;;;;;;;1.35;0.90;;;26.30;62.70;;;;;;10718377;33;20071;-72
2022/09/10 11:27:17;;;;;;;0.62;0.52;;;26.40;61.70;;;;;;10718294;33;20025;-71
2022/09/10 11:33:26;;;;;;;0.90;0.52;;;26.50;61.20;;;;;;10714015;33;20065;-72
2022/09/10 11:39:32;;;;;;;0.62;0.40;;;26.80;61.50;;;;;;10717395;33;20334;-71
2022/09/10 11:46:01;;;;;;;0.30;0.30;;;26.90;61.00;;;;;;10717620;33;20051;-71
2022/09/10 11:52:04;;;;;;;0.30;0.30;;;27.10;60.10;;;;;;10717449;33;20337;-71
2022/09/10 11:58:58;;;;;;;0.40;0.40;;;27.20;59.60;;;;;;10717375;33;20032;-71
2022/09/10 12:05:36;;;;;;;0.88;0.68;;;27.20;59.10;;;;;;10605998;33;20042;-72
2022/09/10 12:11:47;;;;;;;2.20;0.47;;;27.20;58.00;;;;;;10605910;33;20421;-71
2022/09/10 12:18:16;;;;;;;1.85;1.25;;;27.20;57.90;;;;;;10605801;33;20520;-72
2022/09/10 12:24:24;;;;;;;;;;;27.00;57.60;;;;;;10605899;33;20042;-72
2022/09/10 12:30:34;;;;;;;0.45;0.45;;;26.90;57.80;;;;;;10604819;33;19929;-70
2022/09/10 12:36:36;;;;;;;0.70;0.40;;;26.80;57.40;;;;;;10619803;33;20051;-71
2022/09/10 12:42:41;;;;;;;0.98;0.43;;;26.80;57.30;;;;;;10719282;32;20060;-72
2022/09/10 12:49:15;;;;;;;0.30;0.30;;;26.70;57.60;;;;;;10715810;33;20052;-74
2022/09/10 12:56:02;;;;;;;0.52;0.32;;;26.60;57.20;;;;;;10715316;33;20044;-71
2022/09/10 13:02:33;;;;;;;1.05;0.40;;;26.60;57.50;;;;;;10757950;32;20039;-72
2022/09/10 13:08:42;;;;;;;0.30;0.30;;;26.60;57.00;;;;;;10715749;32;20025;-72
2022/09/10 13:14:48;;;;;;;0.35;0.35;;;26.60;57.00;;;;;;10714905;32;20440;-71
2022/09/10 13:20:51;;;;;;;0.70;0.50;;;26.70;56.90;;;;;;10714839;33;20102;-72
2022/09/10 13:27:34;;;;;;;0.22;0.22;;;26.70;56.70;;;;;;10714961;33;20021;-71
2022/09/10 13:33:51;;;;;;;0.85;0.30;;;26.80;56.50;;;;;;10717845;32;20029;-72
2022/09/10 13:40:07;;;;;;;0.90;0.62;;;26.70;56.60;;;;;;10866808;32;20054;-71
2022/09/10 13:46:35;;;;;;;0.60;0.57;;;26.80;57.10;;;;;;10903561;32;20171;-71
2022/09/10 13:52:38;;;;;;;;;;;26.80;56.90;;;;;;10789908;33;20390;-71
2022/09/10 13:58:49;;;;;;;1.12;0.40;;;26.80;56.60;;;;;;10788463;33;19971;-71
2022/09/10 14:04:55;;;;;;;0.28;0.28;;;26.80;56.60;;;;;;10793410;33;20028;-72
2022/09/10 14:11:03;;;;;;;3.40;0.45;;;26.90;56.40;;;;;;10796466;33;20036;-73
2022/09/10 14:17:18;;;;;;;0.20;0.20;;;26.90;55.70;;;;;;10795999;33;20028;-72
2022/09/10 14:23:20;;;;;;;1.02;0.70;;;27.00;55.90;;;;;;10795557;33;20024;-72
2022/09/10 14:29:24;;;;;;;1.00;0.47;;;27.10;55.80;;;;;;10880597;32;20402;-73
2022/09/10 14:35:44;;;;;;;0.62;0.40;;;27.20;55.50;;;;;;10896441;32;20015;-72
2022/09/10 14:42:30;;;;;;;0.40;0.40;;;27.30;54.00;;;;;;10909701;32;20027;-72
2022/09/10 14:48:57;;;;;;;0.88;0.52;;;27.40;54.10;;;;;;10791060;33;20024;-72
2022/09/10 14:54:59;;;;;;;;;;;27.40;53.80;;;;;;10790239;32;20075;-71
2022/09/10 15:01:02;;;;;;;1.65;0.22;;;27.50;54.00;;;;;;10793590;33;19958;-71
2022/09/10 15:07:04;;;;;;;0.40;0.40;;;27.70;53.80;;;;;;10793689;33;20052;-71
2022/09/10 15:13:09;;;;;;;4.53;0.60;;;27.90;53.50;;;;;;10792768;32;20421;-72
2022/09/10 15:19:11;;;;;;;0.30;0.30;;;28.10;52.90;;;;;;10794447;32;20015;-71
2022/09/10 15:25:32;;;;;;;1.52;0.40;;;28.30;52.50;;;;;;10908456;32;20367;-72
2022/09/10 15:31:35;;;;;;;0.98;0.30;;;28.50;51.90;;;;;;10907909;32;20038;-72
2022/09/10 15:37:37;;;;;;;1.40;0.57;;;28.50;51.80;;;;;;10907288;32;20356;-71
2022/09/10 15:43:41;;;;;;;0.70;0.40;;;28.50;51.90;;;;;;10903436;32;20019;-71
2022/09/10 15:49:44;;;;;;;0.50;0.43;;;28.60;51.70;;;;;;10907220;32;20016;-72
2022/09/10 15:55:49;;;;;;;1.55;0.50;;;28.60;51.90;;;;;;10907021;32;20042;-72
2022/09/10 16:02:14;;;;;;;4.30;0.40;;;28.60;52.20;;;;;;10909744;27;20355;-72
2022/09/10 16:08:16;;;;;;;1.42;0.30;;;28.40;52.50;;;;;;10906749;32;20023;-72
2022/09/10 16:14:52;;;;;;;1.10;0.50;;;28.30;52.30;;;;;;10906416;32;20026;-72
2022/09/10 16:20:54;;;;;;;0.30;0.30;;;28.30;52.20;;;;;;10905534;32;20027;-71
2022/09/10 16:26:56;;;;;;;1.73;0.43;;;28.40;52.00;;;;;;10905738;32;20054;-70
2022/09/10 16:32:59;;;;;;;1.10;0.40;;;28.90;50.90;;;;;;10905351;32;20042;-71
2022/09/10 16:39:10;;;;;;;0.98;0.20;;;29.30;49.90;;;;;;10904476;32;20053;-70
2022/09/10 16:45:30;;;;;;;1.85;0.47;;;30.30;48.50;;;;;;10905268;32;20089;-71
2022/09/10 16:51:34;;;;;;;1.15;0.68;;;30.20;48.60;;;;;;10905333;32;20363;-71
2022/09/10 16:57:35;;;;;;;0.37;0.30;;;29.00;50.90;;;;;;10903735;32;20024;-71
2022/09/10 17:03:44;;;;;;;1.62;0.75;;;28.20;52.50;;;;;;10904648;32;20023;-71
2022/09/10 17:09:47;;;;;;;1.12;0.40;;;27.60;54.50;;;;;;10904781;32;20348;-71
2022/09/10 17:15:49;;;;;;;0.20;0.15;;;27.10;56.90;;;;;;10904559;32;20031;-71
2022/09/10 17:28:51;;;;;;;1.67;0.68;;;26.30;59.10;;;;;;10905102;32;20023;-71
2022/09/10 17:34:54;;;;;;;0.82;0.30;;;26.00;59.20;;;;;;10904212;32;20024;-71
2022/09/10 17:40:57;;;;;;;1.02;0.57;;;25.90;59.90;;;;;;10910859;32;20027;-71
2022/09/10 17:47:00;;;;;;;0.30;0.30;;;25.80;60.10;;;;;;10910519;32;20027;-71
2022/09/10 17:53:06;;;;;;;1.20;0.80;;;25.60;60.20;;;;;;10911491;32;20442;-71
2022/09/10 17:59:30;;;;;;;0.73;0.50;;;25.50;60.20;;;;;;10911134;32;20027;-71
2022/09/10 18:05:36;;;;;;;0.45;0.40;;;25.30;60.50;;;;;;10911153;32;20008;-71
2022/09/10 18:12:07;;;;;;;0.55;0.40;;;25.20;61.20;;;;;;10884242;32;20023;-70
2022/09/10 18:18:09;;;;;;;0.73;0.50;;;25.00;62.60;;;;;;10910408;32;20289;-70
2022/09/10 18:24:17;;;;;;;0.68;0.57;;;24.90;63.20;;;;;;10910219;32;20077;-70
2022/09/10 18:30:19;;;;;;;1.20;0.60;;;24.80;63.60;;;;;;10905910;32;20046;-70
2022/09/10 18:36:23;;;;;;;0.28;0.28;;;24.80;64.00;;;;;;10909783;32;20419;-71
2022/09/10 18:42:26;;;;;;;1.35;0.57;;;24.80;64.20;;;;;;10909620;32;20392;-70
2022/09/10 18:48:33;;;;;;;2.92;0.90;;;24.70;64.10;;;;;;10908349;32;20035;-71
2022/09/10 18:54:38;;;;;;;1.33;0.55;;;24.60;64.10;;;;;;10909105;32;20102;-70
2022/09/10 19:00:40;;;;;;;1.52;0.82;;;24.50;65.00;;;;;;10908916;32;20063;-71
2022/09/10 19:06:45;;;;;;;3.30;1.80;;;24.30;66.00;;;;;;10908495;32;20022;-71
2022/09/10 19:12:48;;;;;;;1.45;0.90;;;24.20;66.60;;;;;;10908717;32;20024;-71
2022/09/10 19:19:01;;;;;;;1.55;0.93;;;24.30;67.00;;;;;;10908411;32;20062;-71
2022/09/10 19:25:04;;;;;;;3.22;1.00;;;24.20;67.40;;;;;;10903921;32;20388;-71
2022/09/10 19:31:07;;;;;;;3.12;1.75;;;24.20;67.60;;;;;;10905734;32;20416;-71
2022/09/10 19:37:10;;;;;;;3.10;1.98;;;24.20;67.50;;;;;;10907569;32;20066;-71
2022/09/10 19:43:12;;;;;;;4.65;1.25;;;24.20;67.50;;;;;;10907638;32;20369;-71
2022/09/10 19:49:15;;;;;;;2.55;1.20;;;24.20;67.60;;;;;;10907579;32;20015;-70
2022/09/10 19:55:17;;;;;;;2.03;1.25;;;24.20;67.50;;;;;;10906531;32;20038;-70
2022/09/10 20:01:25;;;;;;;1.70;1.05;;;24.10;67.70;;;;;;10906728;32;20305;-71
2022/09/10 20:07:32;;;;;;;0.65;0.65;;;24.10;67.80;;;;;;10906780;32;20352;-71
2022/09/10 20:13:36;;;;;;;1.05;0.80;;;24.00;68.20;;;;;;10906400;32;20035;-71
2022/09/10 20:19:39;;;;;;;1.50;0.75;;;24.00;68.30;;;;;;10906215;32;20399;-71
2022/09/10 20:25:42;;;;;;;0.98;0.68;;;23.90;68.40;;;;;;10905964;32;20024;-70
2022/09/10 20:31:47;;;;;;;0.80;0.60;;;23.80;68.60;;;;;;10901539;32;20023;-71
2022/09/10 20:37:59;;;;;;;0.40;0.40;;;23.80;68.50;;;;;;10905536;32;20034;-70
2022/09/10 20:44:01;;;;;;;2.40;1.12;;;23.80;68.80;;;;;;10905291;32;20391;-71
2022/09/10 20:50:07;;;;;;;0.75;0.60;;;23.80;69.20;;;;;;10905321;32;20050;-70
2022/09/10 20:56:13;;;;;;;2.03;1.05;;;23.80;69.10;;;;;;10905161;32;20023;-71
2022/09/10 21:02:14;;;;;;;1.17;0.90;;;23.70;69.20;;;;;;10900662;32;20400;-71
2022/09/10 21:08:17;;;;;;;0.98;0.68;;;23.70;69.10;;;;;;10904714;32;20335;-71
2022/09/10 21:14:19;;;;;;;2.90;0.90;;;23.70;69.60;;;;;;10904130;32;20340;-71
2022/09/10 21:20:23;;;;;;;1.30;0.88;;;23.60;69.70;;;;;;10904275;32;20054;-71
2022/09/10 21:26:28;;;;;;;1.37;0.90;;;23.60;70.00;;;;;;10904292;32;20435;-71
2022/09/10 21:32:33;;;;;;;0.60;0.43;;;23.50;70.40;;;;;;10904251;32;20082;-71
2022/09/10 21:38:37;;;;;;;1.48;0.65;;;23.50;70.60;;;;;;10903128;32;20333;-71
2022/09/10 21:44:40;;;;;;;1.20;0.75;;;23.50;70.80;;;;;;10904065;32;20042;-71
2022/09/10 21:50:42;;;;;;;0.77;0.47;;;23.40;71.00;;;;;;10903850;32;20035;-70
2022/09/10 21:56:44;;;;;;;1.65;1.23;;;23.40;71.20;;;;;;10903872;32;20015;-71
2022/09/10 22:02:48;;;;;;;0.35;0.35;;;23.30;71.10;;;;;;10903732;32;20027;-71
2022/09/10 22:09:04;;;;;;;1.10;0.70;;;23.30;71.10;;;;;;10903727;32;20305;-70
2022/09/10 22:15:24;;;;;;;1.17;0.75;;;23.30;71.20;;;;;;10903626;32;20019;-71
2022/09/10 22:21:26;;;;;;;0.82;0.70;;;23.20;71.20;;;;;;10903471;32;20323;-71
2022/09/10 22:27:32;;;;;;;1.27;0.65;;;23.20;71.20;;;;;;10905797;32;20062;-70
2022/09/10 22:33:36;;;;;;;1.62;0.93;;;23.20;71.10;;;;;;10906601;32;20050;-70
2022/09/10 22:39:39;;;;;;;0.98;0.70;;;23.10;71.00;;;;;;10909854;32;20019;-71
2022/09/10 22:45:41;;;;;;;1.50;0.88;;;23.10;71.10;;;;;;10909698;32;20055;-71
2022/09/10 22:51:44;;;;;;;3.92;0.62;;;23.00;71.30;;;;;;10905213;32;20031;-71
2022/09/10 22:57:48;;;;;;;0.40;0.40;;;22.90;71.80;;;;;;10909136;32;20027;-71
2022/09/10 23:03:51;;;;;;;2.05;0.95;;;22.90;71.80;;;;;;10908653;32;20028;-71
2022/09/10 23:09:54;;;;;;;3.42;1.33;;;23.00;71.90;;;;;;10908649;32;20041;-71
2022/09/10 23:15:57;;;;;;;0.43;0.40;;;23.00;72.00;;;;;;10908546;32;20035;-70
2022/09/10 23:21:59;;;;;;;0.75;0.73;;;23.00;72.00;;;;;;10904285;32;20023;-70
2022/09/10 23:28:01;;;;;;;0.40;0.40;;;23.00;72.10;;;;;;10908230;32;20398;-69
2022/09/10 23:34:09;;;;;;;1.10;0.65;;;22.90;72.00;;;;;;10902348;32;20409;-69
2022/09/10 23:40:12;;;;;;;0.70;0.70;;;22.80;71.40;;;;;;10903470;32;20181;-70
2022/09/10 23:46:14;;;;;;;1.67;0.95;;;22.60;70.90;;;;;;10907455;32;20042;-71
